Time;durP1;ratioP1;P1;durP2;ratioP2;P2;SDS_P1;SDS_P2;PMS_P1;PMS_P2;Temp;Humidity;BMP_temperature;BMP_pressure;BME280_temperature;BME280_humidity;BME280_pressure;Samples;Min_cycle;Max_cycle;Signal;HPM_P1;HPM_P2
2023/01/01 00:01:28;;;;;;;26.35;17.30;;;11.20;99.90;;;;;;5077350;28;20029;-78
2023/01/01 00:03:56;;;;;;;23.48;15.15;;;11.10;99.90;;;;;;5070777;28;20067;-78
2023/01/01 00:06:22;;;;;;;24.02;15.90;;;11.10;99.90;;;;;;5075558;28;20508;-78
2023/01/01 00:10:26;;;;;;;21.27;14.43;;;11.10;99.90;;;;;;5069141;28;20233;-78
2023/01/01 00:11:35;;;;;;;25.55;15.98;;;11.00;99.90;;;;;;5077470;28;20032;-78
2023/01/01 00:14:00;;;;;;;21.30;15.30;;;11.00;99.90;;;;;;5080832;28;20115;-78
2023/01/01 00:16:26;;;;;;;25.75;15.93;;;11.00;99.90;;;;;;5073050;28;20477;-78
2023/01/01 00:18:52;;;;;;;22.00;15.73;;;10.90;99.90;;;;;;5057749;28;20043;-78
2023/01/01 00:21:18;;;;;;;17.70;13.02;;;10.80;99.90;;;;;;5076798;28;20029;-78
2023/01/01 00:23:44;;;;;;;17.55;10.80;;;10.80;99.90;;;;;;5070841;28;20060;-78
2023/01/01 00:26:14;;;;;;;11.68;8.40;;;10.80;99.90;;;;;;5072690;28;20044;-78
2023/01/01 00:28:40;;;;;;;11.85;8.70;;;10.80;99.90;;;;;;5072109;28;20016;-78
2023/01/01 00:31:15;;;;;;;10.50;7.63;;;10.80;99.90;;;;;;5076854;28;20046;-77
2023/01/01 00:33:42;;;;;;;16.58;11.10;;;10.80;99.90;;;;;;5072375;28;20024;-78
2023/01/01 00:36:11;;;;;;;16.85;12.65;;;10.80;99.90;;;;;;5072779;28;20021;-78
2023/01/01 00:38:38;;;;;;;18.95;11.73;;;10.80;99.90;;;;;;5063116;28;20123;-78
2023/01/01 00:41:04;;;;;;;17.90;11.68;;;10.70;99.90;;;;;;5065463;28;20027;-78
2023/01/01 00:43:30;;;;;;;16.45;11.15;;;10.70;99.90;;;;;;5070461;28;20174;-78
2023/01/01 00:45:57;;;;;;;19.40;13.38;;;10.70;99.90;;;;;;5071980;28;20024;-78
2023/01/01 00:48:23;;;;;;;18.02;12.05;;;10.70;99.90;;;;;;5054902;28;20048;-78
2023/01/01 00:50:50;;;;;;;15.02;10.02;;;10.60;99.90;;;;;;5071410;28;20032;-78
2023/01/01 00:53:17;;;;;;;15.60;9.88;;;10.60;99.90;;;;;;5051483;28;20048;-78
2023/01/01 00:55:44;;;;;;;14.75;9.05;;;10.50;99.90;;;;;;5073743;28;20092;-78
2023/01/01 00:58:10;;;;;;;12.70;8.93;;;10.50;99.90;;;;;;5058271;28;20036;-78
2023/01/01 01:00:36;;;;;;;12.75;8.70;;;10.50;99.90;;;;;;5055946;28;20032;-77
2023/01/01 01:03:03;;;;;;;12.30;7.85;;;10.50;99.90;;;;;;5071972;28;20021;-78
2023/01/01 01:05:31;;;;;;;11.27;7.50;;;10.50;99.90;;;;;;5056023;28;20040;-78
2023/01/01 01:07:57;;;;;;;11.40;6.75;;;10.60;99.90;;;;;;5068032;28;20112;-77
2023/01/01 01:10:24;;;;;;;10.45;7.03;;;10.60;99.90;;;;;;5067701;28;20041;-77
2023/01/01 01:12:54;;;;;;;8.82;6.65;;;10.60;99.90;;;;;;5071417;28;20025;-78
2023/01/01 01:15:20;;;;;;;8.65;5.85;;;10.50;99.90;;;;;;5073139;28;20024;-78
2023/01/01 01:17:47;;;;;;;7.38;5.82;;;10.50;99.90;;;;;;5073635;28;20020;-77
2023/01/01 01:20:12;;;;;;;7.85;5.45;;;10.60;99.90;;;;;;5054335;28;20218;-78
2023/01/01 01:22:39;;;;;;;8.63;5.38;;;10.60;99.90;;;;;;5055282;28;20096;-77
2023/01/01 01:25:06;;;;;;;7.25;5.15;;;10.60;99.90;;;;;;5073285;28;20025;-77
2023/01/01 01:27:31;;;;;;;10.77;6.03;;;10.70;99.90;;;;;;5066126;28;20378;-78
2023/01/01 01:29:57;;;;;;;9.00;5.72;;;10.70;99.90;;;;;;5074858;28;20047;-77
2023/01/01 01:32:23;;;;;;;8.35;5.90;;;10.70;99.90;;;;;;5053469;28;20039;-78
2023/01/01 01:34:50;;;;;;;9.50;5.55;;;10.70;99.90;;;;;;5073244;28;20342;-77
2023/01/01 01:37:16;;;;;;;7.78;5.50;;;10.70;99.90;;;;;;5072147;28;20028;-77
2023/01/01 01:39:42;;;;;;;6.57;4.88;;;10.70;99.90;;;;;;5059813;28;20044;-77
2023/01/01 01:42:15;;;;;;;7.65;4.40;;;10.70;99.90;;;;;;5074844;28;20051;-79
2023/01/01 01:44:51;;;;;;;7.70;4.53;;;10.60;99.90;;;;;;5074106;28;20598;-78
2023/01/01 01:47:22;;;;;;;7.25;4.55;;;10.60;99.90;;;;;;5034753;28;20056;-78
2023/01/01 01:49:55;;;;;;;9.23;4.85;;;10.60;99.90;;;;;;5074320;28;20024;-78
2023/01/01 01:52:21;;;;;;;6.95;4.55;;;10.60;99.90;;;;;;5070596;28;20044;-78
2023/01/01 01:54:47;;;;;;;7.55;5.28;;;10.60;99.90;;;;;;5076158;28;20435;-78
2023/01/01 01:57:14;;;;;;;7.88;5.40;;;10.70;99.90;;;;;;5071967;28;20082;-78
2023/01/01 01:59:46;;;;;;;10.00;5.95;;;10.70;99.90;;;;;;5056099;28;20543;-78
2023/01/01 02:02:31;;;;;;;9.15;6.28;;;10.70;99.90;;;;;;5050942;28;20028;-78
2023/01/01 02:04:57;;;;;;;9.73;6.30;;;10.80;99.90;;;;;;5053835;28;20040;-79
2023/01/01 02:07:26;;;;;;;10.63;6.05;;;10.90;99.90;;;;;;5049830;28;20025;-78
2023/01/01 02:09:53;;;;;;;10.90;6.85;;;10.90;99.90;;;;;;5078484;28;20126;-79
2023/01/01 02:12:19;;;;;;;13.60;7.55;;;10.90;99.90;;;;;;5060204;28;20028;-79
2023/01/01 02:14:44;;;;;;;14.05;7.97;;;11.00;99.90;;;;;;5061051;28;20028;-78
2023/01/01 02:17:37;;;;;;;15.30;8.18;;;10.90;99.90;;;;;;5073441;28;20037;-78
2023/01/01 02:20:53;;;;;;;12.88;8.77;;;11.00;99.90;;;;;;5083529;28;20033;-79
2023/01/01 02:23:45;;;;;;;16.25;9.02;;;11.00;99.90;;;;;;5031852;28;20105;-78
2023/01/01 02:26:42;;;;;;;15.30;9.10;;;11.10;99.90;;;;;;5067545;28;20385;-78
2023/01/01 02:29:21;;;;;;;14.63;9.27;;;11.10;99.90;;;;;;5069765;28;20032;-79
2023/01/01 02:32:04;;;;;;;14.18;9.02;;;11.10;99.90;;;;;;5072338;28;20046;-78
2023/01/01 02:34:48;;;;;;;16.40;9.05;;;11.10;99.90;;;;;;5069796;28;20056;-78
2023/01/01 02:37:17;;;;;;;13.13;8.63;;;11.20;99.90;;;;;;5071472;28;20021;-78
2023/01/01 02:39:53;;;;;;;12.80;9.35;;;11.20;99.90;;;;;;5069954;28;20616;-78
2023/01/01 02:42:22;;;;;;;13.90;9.20;;;11.30;99.90;;;;;;5060218;28;20116;-78
2023/01/01 02:44:52;;;;;;;13.52;9.27;;;11.20;99.90;;;;;;5055499;28;20042;-78
2023/01/01 02:47:19;;;;;;;12.82;8.82;;;11.30;99.90;;;;;;5077207;28;20029;-78
2023/01/01 02:49:54;;;;;;;14.55;9.40;;;11.30;99.90;;;;;;5072386;28;20118;-78
2023/01/01 02:52:52;;;;;;;14.18;9.88;;;11.30;99.90;;;;;;5052694;28;20090;-78
2023/01/01 02:55:35;;;;;;;15.40;9.00;;;11.30;99.90;;;;;;5042629;28;20072;-78
2023/01/01 03:00:18;;;;;;;13.68;9.40;;;11.30;99.90;;;;;;5069708;28;20035;-78
2023/01/01 03:00:57;;;;;;;13.65;9.13;;;11.30;99.90;;;;;;5075535;28;20016;-78
2023/01/01 03:03:43;;;;;;;15.23;9.30;;;11.30;99.90;;;;;;5074695;28;20428;-78
2023/01/01 03:06:26;;;;;;;12.50;8.73;;;11.30;99.90;;;;;;5070973;28;20587;-78
2023/01/01 03:09:19;;;;;;;15.43;8.77;;;11.20;99.90;;;;;;5077289;28;20082;-78
2023/01/01 03:12:01;;;;;;;14.77;9.90;;;11.20;99.90;;;;;;5076113;28;20512;-78
2023/01/01 03:14:49;;;;;;;16.45;9.02;;;11.30;99.90;;;;;;5056878;28;20544;-78
2023/01/01 03:17:15;;;;;;;15.10;9.95;;;11.30;99.90;;;;;;5070186;28;20032;-78
2023/01/01 03:19:44;;;;;;;16.17;11.20;;;11.10;99.90;;;;;;5072039;28;20028;-78
2023/01/01 03:22:14;;;;;;;17.60;11.65;;;11.00;99.90;;;;;;5069671;28;20037;-78
2023/01/01 03:24:43;;;;;;;16.55;10.85;;;10.80;99.90;;;;;;5072332;28;20032;-78
2023/01/01 03:27:24;;;;;;;20.35;12.68;;;10.60;99.90;;;;;;5060407;28;20027;-78
2023/01/01 03:29:55;;;;;;;17.73;11.52;;;10.40;99.90;;;;;;5072889;28;20048;-77
2023/01/01 03:32:59;;;;;;;20.40;13.07;;;10.20;99.90;;;;;;5071756;28;20627;-78
2023/01/01 03:35:16;;;;;;;21.95;12.90;;;10.10;99.90;;;;;;5065974;28;20040;-78
2023/01/01 03:37:45;;;;;;;18.80;11.48;;;10.00;99.90;;;;;;5067482;28;20031;-78
2023/01/01 03:40:13;;;;;;;16.92;11.32;;;10.00;99.90;;;;;;5054264;28;20041;-78
2023/01/01 03:42:42;;;;;;;17.15;9.90;;;10.00;99.90;;;;;;5037167;28;20040;-77
2023/01/01 03:45:23;;;;;;;14.10;9.13;;;9.90;99.90;;;;;;5070414;28;20046;-78
2023/01/01 03:47:49;;;;;;;16.52;9.00;;;9.90;99.90;;;;;;5037206;28;20079;-78
2023/01/01 03:50:18;;;;;;;13.70;8.70;;;10.00;99.90;;;;;;5057834;28;20036;-78
2023/01/01 03:52:49;;;;;;;12.85;8.57;;;10.00;99.90;;;;;;5070380;28;20107;-78
2023/01/01 03:55:32;;;;;;;15.75;8.15;;;10.00;99.90;;;;;;5065553;28;20104;-78
2023/01/01 03:58:30;;;;;;;14.80;9.25;;;10.00;99.90;;;;;;5064593;28;20065;-78
2023/01/01 04:01:25;;;;;;;13.80;7.68;;;10.00;99.90;;;;;;5049796;28;20422;-78
2023/01/01 04:03:52;;;;;;;13.68;8.90;;;9.90;99.90;;;;;;5047221;28;20116;-78
2023/01/01 04:06:19;;;;;;;14.85;8.75;;;9.90;99.90;;;;;;5066695;28;20033;-78
2023/01/01 04:08:46;;;;;;;13.73;8.60;;;10.00;99.90;;;;;;5048610;28;20384;-78
2023/01/01 04:14:03;;;;;;;25.23;13.13;;;10.00;99.90;;;;;;5057989;28;20086;-78
2023/01/01 04:16:29;;;;;;;23.90;14.05;;;9.90;99.90;;;;;;5067541;28;20116;-78
2023/01/01 04:18:55;;;;;;;23.63;14.20;;;9.90;99.90;;;;;;5049154;28;20044;-78
2023/01/01 04:21:21;;;;;;;23.23;14.40;;;9.80;99.90;;;;;;5051041;28;20036;-78
2023/01/01 04:23:46;;;;;;;23.27;13.85;;;9.70;99.90;;;;;;5070852;28;20028;-78
2023/01/01 04:26:14;;;;;;;19.50;12.77;;;9.50;99.90;;;;;;5073997;28;20044;-78
2023/01/01 04:28:41;;;;;;;18.73;11.75;;;9.40;99.90;;;;;;5067776;28;20028;-79
2023/01/01 04:31:08;;;;;;;18.10;9.98;;;9.30;99.90;;;;;;5073779;28;20046;-78
2023/01/01 04:33:34;;;;;;;13.90;8.82;;;9.30;99.90;;;;;;5055001;28;20733;-78
2023/01/01 04:36:09;;;;;;;14.10;9.73;;;9.20;99.90;;;;;;5073568;28;20049;-78
2023/01/01 04:38:36;;;;;;;17.23;10.85;;;9.20;99.90;;;;;;5066668;28;20059;-78
2023/01/01 04:41:03;;;;;;;14.93;9.20;;;9.10;99.90;;;;;;5054061;28;20115;-78
2023/01/01 04:43:30;;;;;;;14.75;8.82;;;9.10;99.90;;;;;;5053208;28;20028;-78
2023/01/01 04:46:02;;;;;;;12.38;7.97;;;9.10;99.90;;;;;;5069881;28;20043;-78
2023/01/01 04:48:29;;;;;;;12.95;8.18;;;9.00;99.90;;;;;;5069881;28;20535;-78
2023/01/01 04:51:04;;;;;;;14.05;8.45;;;9.00;99.90;;;;;;5078318;28;20826;-79
2023/01/01 04:53:32;;;;;;;12.02;7.00;;;9.00;99.90;;;;;;5073185;28;20044;-79
2023/01/01 04:56:11;;;;;;;13.48;7.97;;;9.00;99.90;;;;;;5075651;28;20024;-77
2023/01/01 04:58:38;;;;;;;10.50;6.90;;;9.20;99.90;;;;;;5084353;28;20036;-79
2023/01/01 05:01:05;;;;;;;13.65;7.75;;;9.30;99.90;;;;;;5054528;28;20036;-78
2023/01/01 05:03:31;;;;;;;12.07;7.10;;;9.40;99.90;;;;;;5051787;28;20029;-78
2023/01/01 05:06:07;;;;;;;10.65;6.65;;;9.50;99.90;;;;;;5035553;28;20028;-78
2023/01/01 05:08:36;;;;;;;11.88;6.30;;;9.60;99.90;;;;;;5071602;28;20031;-79
2023/01/01 05:11:08;;;;;;;9.10;5.72;;;9.60;99.90;;;;;;5073824;28;20449;-79
2023/01/01 05:13:35;;;;;;;9.20;6.05;;;9.60;99.90;;;;;;5077087;28;20054;-79
2023/01/01 05:16:03;;;;;;;10.75;6.07;;;9.60;99.90;;;;;;5077138;28;20027;-78
2023/01/01 05:18:29;;;;;;;10.18;5.70;;;9.50;99.90;;;;;;5075405;28;20075;-79
2023/01/01 05:21:04;;;;;;;10.30;5.95;;;9.50;99.90;;;;;;5033673;28;20392;-79
2023/01/01 05:23:31;;;;;;;9.75;5.85;;;9.50;99.90;;;;;;5077844;28;20113;-78
2023/01/01 05:25:57;;;;;;;8.10;5.57;;;9.50;99.90;;;;;;5070514;28;20029;-78
2023/01/01 05:28:23;;;;;;;12.25;6.10;;;9.50;99.90;;;;;;5059345;28;20535;-78
2023/01/01 05:30:50;;;;;;;9.82;5.93;;;9.40;99.90;;;;;;5064384;28;20024;-78
2023/01/01 05:33:16;;;;;;;14.50;7.18;;;9.30;99.90;;;;;;5043026;28;20127;-78
2023/01/01 05:35:43;;;;;;;12.07;6.60;;;9.30;99.90;;;;;;5045807;28;20132;-79
2023/01/01 05:38:09;;;;;;;11.23;6.53;;;9.20;99.90;;;;;;5034170;28;20044;-78
2023/01/01 05:40:38;;;;;;;12.60;6.45;;;9.20;99.90;;;;;;5074429;28;20025;-77
2023/01/01 05:43:04;;;;;;;11.15;6.78;;;9.20;99.90;;;;;;5059629;28;20039;-79
2023/01/01 05:45:30;;;;;;;10.48;6.45;;;9.20;99.90;;;;;;5085217;28;20036;-78
2023/01/01 05:47:55;;;;;;;11.52;7.10;;;9.30;99.90;;;;;;5036565;28;20024;-79
2023/01/01 05:50:22;;;;;;;8.43;5.65;;;9.30;99.90;;;;;;5065879;28;20021;-78
2023/01/01 05:52:48;;;;;;;10.88;6.13;;;9.30;99.90;;;;;;5054550;28;20033;-78
2023/01/01 05:55:14;;;;;;;11.63;6.80;;;9.20;99.90;;;;;;5057552;28;20082;-79
2023/01/01 05:57:40;;;;;;;10.48;6.60;;;9.20;99.90;;;;;;5068749;28;20032;-78
2023/01/01 06:00:07;;;;;;;9.50;6.20;;;9.10;99.90;;;;;;5055526;28;20062;-79
2023/01/01 06:02:32;;;;;;;9.68;6.38;;;9.10;99.90;;;;;;5055195;28;20044;-79
2023/01/01 06:04:59;;;;;;;11.48;6.47;;;9.00;99.90;;;;;;5083187;28;20032;-79
2023/01/01 06:07:24;;;;;;;11.93;6.40;;;9.00;99.90;;;;;;5053312;28;20041;-78
2023/01/01 06:09:50;;;;;;;10.75;6.43;;;9.00;99.90;;;;;;5054554;28;20135;-78
2023/01/01 06:12:16;;;;;;;9.40;5.70;;;9.00;99.90;;;;;;5077116;28;20025;-79
2023/01/01 06:14:42;;;;;;;10.70;5.68;;;9.10;99.90;;;;;;5071062;28;20161;-78
2023/01/01 06:17:08;;;;;;;9.07;5.95;;;9.10;99.90;;;;;;5054892;28;20047;-78
2023/01/01 06:19:34;;;;;;;7.45;5.65;;;9.10;99.90;;;;;;5075236;28;20041;-78
2023/01/01 06:22:00;;;;;;;7.50;5.55;;;9.20;99.90;;;;;;5052604;28;20044;-79
2023/01/01 06:24:26;;;;;;;7.93;5.13;;;9.30;99.90;;;;;;5041259;28;20107;-78
2023/01/01 06:26:52;;;;;;;9.80;5.40;;;9.40;99.90;;;;;;5054521;28;20036;-79
2023/01/01 06:29:19;;;;;;;11.05;5.10;;;9.40;99.90;;;;;;5054816;28;20078;-77
2023/01/01 06:31:45;;;;;;;7.38;4.38;;;9.40;99.90;;;;;;5074290;28;20499;-78
2023/01/01 06:34:11;;;;;;;8.63;4.82;;;9.50;99.90;;;;;;5041287;28;20086;-79
2023/01/01 06:36:37;;;;;;;7.45;4.18;;;9.60;99.90;;;;;;5057747;28;20144;-78
2023/01/01 06:39:03;;;;;;;7.88;4.40;;;9.70;99.90;;;;;;5060904;28;20493;-79
2023/01/01 06:41:29;;;;;;;5.80;4.18;;;9.80;99.90;;;;;;5061987;28;20044;-79
2023/01/01 06:43:57;;;;;;;11.50;4.35;;;9.90;99.90;;;;;;5042496;28;20040;-78
2023/01/01 06:46:30;;;;;;;7.75;4.30;;;10.00;99.90;;;;;;5060598;28;20178;-78
2023/01/01 06:48:58;;;;;;;6.80;4.70;;;10.10;99.90;;;;;;5072949;28;20033;-77
2023/01/01 06:51:28;;;;;;;6.65;3.88;;;10.10;99.90;;;;;;5057789;28;20044;-77
2023/01/01 06:53:57;;;;;;;6.28;4.38;;;10.20;99.90;;;;;;5065768;28;20082;-78
2023/01/01 06:56:22;;;;;;;7.70;4.43;;;10.20;99.90;;;;;;5067662;28;20025;-77
2023/01/01 06:58:49;;;;;;;7.40;4.43;;;10.20;99.90;;;;;;5046328;28;20078;-77
2023/01/01 07:01:20;;;;;;;10.60;6.03;;;10.30;99.90;;;;;;5049909;28;20044;-77
2023/01/01 07:03:51;;;;;;;10.05;7.00;;;10.30;99.90;;;;;;5064836;28;20048;-77
2023/01/01 07:06:18;;;;;;;10.93;6.65;;;10.20;99.90;;;;;;5073706;28;20024;-78
2023/01/01 07:08:43;;;;;;;10.82;7.10;;;10.10;99.90;;;;;;5057428;28;20131;-78
2023/01/01 07:11:09;;;;;;;10.85;6.55;;;10.10;99.90;;;;;;5066086;28;20029;-78
2023/01/01 07:13:35;;;;;;;10.27;6.35;;;9.90;99.90;;;;;;5071213;28;20021;-78
2023/01/01 07:16:02;;;;;;;11.27;6.50;;;9.70;99.90;;;;;;5052759;28;20424;-76
2023/01/01 07:18:27;;;;;;;12.40;6.95;;;9.50;99.90;;;;;;5068468;28;20036;-79
2023/01/01 07:20:56;;;;;;;10.93;6.82;;;9.40;99.90;;;;;;5067178;28;20032;-79
2023/01/01 07:23:22;;;;;;;13.38;5.80;;;9.30;99.90;;;;;;5042486;28;20041;-78
2023/01/01 07:25:49;;;;;;;8.43;5.85;;;9.30;99.90;;;;;;5079110;28;20041;-78
2023/01/01 07:28:15;;;;;;;9.75;6.25;;;9.20;99.90;;;;;;5066400;28;20088;-78
2023/01/01 07:30:41;;;;;;;9.93;6.68;;;9.20;99.90;;;;;;5059000;28;20036;-78
2023/01/01 07:33:16;;;;;;;9.80;6.18;;;9.10;99.90;;;;;;5053581;28;20033;-78
2023/01/01 07:35:46;;;;;;;11.25;6.57;;;9.00;99.90;;;;;;5074030;28;20032;-79
2023/01/01 07:38:13;;;;;;;8.95;5.88;;;9.00;99.90;;;;;;5073817;28;20043;-77
2023/01/01 07:40:39;;;;;;;12.25;7.75;;;8.90;99.90;;;;;;5070168;28;21305;-78
2023/01/01 07:43:06;;;;;;;11.75;7.50;;;8.80;99.90;;;;;;5071847;28;20029;-78
2023/01/01 07:45:33;;;;;;;16.15;8.50;;;8.80;99.90;;;;;;5064826;28;20103;-77
2023/01/01 07:47:59;;;;;;;13.07;8.20;;;8.70;99.90;;;;;;5082909;28;20111;-79
2023/01/01 07:50:28;;;;;;;11.38;7.50;;;8.70;99.90;;;;;;5053629;28;20040;-78
2023/01/01 07:52:55;;;;;;;11.80;7.18;;;8.70;99.90;;;;;;5056300;28;20078;-78
2023/01/01 07:55:21;;;;;;;13.52;8.10;;;8.90;99.90;;;;;;5064450;28;20024;-79
2023/01/01 07:57:48;;;;;;;11.35;6.85;;;8.80;99.90;;;;;;5055944;28;20044;-79
2023/01/01 08:00:17;;;;;;;10.32;6.85;;;8.80;99.90;;;;;;5058161;28;20111;-78
2023/01/01 08:02:43;;;;;;;9.38;5.97;;;8.80;99.90;;;;;;5079392;28;20035;-79
2023/01/01 08:05:10;;;;;;;9.50;5.78;;;8.90;99.90;;;;;;5060043;28;20496;-77
2023/01/01 08:07:36;;;;;;;11.57;6.22;;;9.00;99.90;;;;;;5041534;28;20046;-79
2023/01/01 08:10:05;;;;;;;10.38;5.57;;;9.00;99.90;;;;;;5069627;28;20040;-79
2023/01/01 08:12:31;;;;;;;9.90;5.80;;;9.10;99.90;;;;;;5074903;28;20032;-78
2023/01/01 08:14:57;;;;;;;10.50;6.55;;;9.20;99.90;;;;;;5057082;28;20024;-78
2023/01/01 08:17:22;;;;;;;11.15;6.03;;;9.30;99.90;;;;;;5059424;28;20038;-78
2023/01/01 08:19:49;;;;;;;10.90;6.15;;;9.30;99.90;;;;;;5063160;28;20378;-78
2023/01/01 08:22:15;;;;;;;10.10;6.30;;;9.40;99.90;;;;;;5043696;28;20033;-78
2023/01/01 08:24:42;;;;;;;14.63;7.68;;;9.40;99.90;;;;;;5053161;28;20038;-78
2023/01/01 08:27:12;;;;;;;10.65;7.28;;;9.40;99.90;;;;;;5043137;28;20037;-78
2023/01/01 08:29:38;;;;;;;14.07;7.70;;;9.40;99.90;;;;;;5068837;28;20032;-79
2023/01/01 08:32:04;;;;;;;11.90;7.35;;;9.50;99.90;;;;;;5038928;28;20049;-78
2023/01/01 08:34:30;;;;;;;10.07;5.07;;;9.50;99.90;;;;;;5044038;28;20653;-79
2023/01/01 08:36:56;;;;;;;6.40;4.35;;;9.50;99.90;;;;;;5052237;28;20111;-79
2023/01/01 08:39:22;;;;;;;8.43;4.80;;;9.60;99.90;;;;;;5050271;28;20100;-78
2023/01/01 08:41:48;;;;;;;8.10;4.30;;;9.70;99.90;;;;;;5052104;28;20477;-78
2023/01/01 08:44:14;;;;;;;4.82;3.95;;;9.70;99.90;;;;;;5037113;28;20033;-79
2023/01/01 08:46:40;;;;;;;4.35;3.50;;;9.80;99.90;;;;;;5071206;28;20032;-78
2023/01/01 08:49:05;;;;;;;7.00;3.85;;;9.90;99.90;;;;;;5068046;28;20388;-78
2023/01/01 08:51:31;;;;;;;6.30;3.63;;;10.00;99.90;;;;;;5037794;28;20112;-78
2023/01/01 08:53:58;;;;;;;5.68;3.75;;;10.10;99.90;;;;;;5075684;28;20078;-78
2023/01/01 08:56:24;;;;;;;5.95;3.42;;;10.20;99.90;;;;;;5058422;28;20047;-78
2023/01/01 08:58:50;;;;;;;5.78;3.38;;;10.30;99.90;;;;;;5078045;28;20042;-78
2023/01/01 09:01:16;;;;;;;8.18;3.92;;;10.40;99.90;;;;;;5053781;28;20024;-78
2023/01/01 09:03:42;;;;;;;6.57;3.60;;;10.40;99.90;;;;;;5075774;28;20035;-78
2023/01/01 09:06:08;;;;;;;5.18;3.55;;;10.50;99.90;;;;;;5079385;28;20115;-78
2023/01/01 09:08:34;;;;;;;8.20;3.60;;;10.50;99.90;;;;;;5074577;28;20032;-78
2023/01/01 09:11:01;;;;;;;5.68;3.53;;;10.50;99.90;;;;;;5040347;28;20028;-78
2023/01/01 09:13:28;;;;;;;7.47;3.50;;;10.50;99.90;;;;;;5033416;28;20031;-78
2023/01/01 09:15:54;;;;;;;5.63;3.80;;;10.60;99.90;;;;;;5052113;28;20020;-78
2023/01/01 09:18:19;;;;;;;5.35;3.60;;;10.60;99.90;;;;;;5078865;28;20017;-78
2023/01/01 09:20:46;;;;;;;5.10;3.35;;;10.70;99.90;;;;;;5061133;28;20119;-78
2023/01/01 09:23:12;;;;;;;5.10;3.63;;;10.70;99.90;;;;;;5049030;28;20658;-78
2023/01/01 09:25:37;;;;;;;5.65;3.35;;;10.70;99.90;;;;;;5061694;28;20017;-78
2023/01/01 09:28:10;;;;;;;6.68;3.63;;;10.80;99.90;;;;;;5066228;28;20116;-78
2023/01/01 09:30:36;;;;;;;5.70;3.67;;;10.80;99.90;;;;;;5069214;28;20074;-79
2023/01/01 09:33:03;;;;;;;6.57;3.28;;;10.90;99.90;;;;;;5039639;28;20051;-79
2023/01/01 09:35:29;;;;;;;5.40;2.78;;;10.90;99.90;;;;;;5075543;28;20047;-79
2023/01/01 09:37:55;;;;;;;4.70;2.78;;;11.00;99.90;;;;;;5044222;28;20100;-78
2023/01/01 09:40:27;;;;;;;5.47;3.03;;;11.00;99.90;;;;;;5060063;28;20054;-77
2023/01/01 09:43:24;;;;;;;4.15;2.80;;;11.00;99.90;;;;;;5046592;28;20119;-77
2023/01/01 09:46:01;;;;;;;3.63;2.63;;;11.10;99.90;;;;;;5074112;28;20163;-79
2023/01/01 09:48:29;;;;;;;6.88;3.30;;;11.20;99.90;;;;;;5066489;28;20031;-78
2023/01/01 09:50:59;;;;;;;6.93;3.83;;;11.30;99.90;;;;;;5068688;28;20092;-79
2023/01/01 09:53:41;;;;;;;7.78;3.10;;;11.40;99.90;;;;;;5046080;28;20037;-79
2023/01/01 09:56:17;;;;;;;4.07;2.50;;;11.50;99.90;;;;;;5059577;28;20120;-77
2023/01/01 09:58:43;;;;;;;6.60;2.85;;;11.60;99.90;;;;;;5048203;28;20043;-79
2023/01/01 10:01:57;;;;;;;5.00;2.70;;;11.70;99.90;;;;;;5064297;28;20056;-78
2023/01/01 10:04:29;;;;;;;6.88;3.30;;;11.80;99.90;;;;;;5033794;28;20135;-79
2023/01/01 10:07:31;;;;;;;7.88;3.20;;;11.90;99.90;;;;;;5063302;28;20032;-79
2023/01/01 10:10:01;;;;;;;5.68;2.95;;;12.00;99.90;;;;;;5046012;28;20183;-79
2023/01/01 10:12:45;;;;;;;4.28;2.55;;;12.10;99.90;;;;;;5068888;28;20028;-79
2023/01/01 10:15:17;;;;;;;3.88;2.53;;;12.10;99.90;;;;;;5061048;28;20420;-79
2023/01/01 10:17:47;;;;;;;5.15;2.80;;;12.20;99.90;;;;;;5053792;28;20507;-79
2023/01/01 10:20:22;;;;;;;3.58;2.38;;;12.20;99.90;;;;;;5048069;28;20090;-79
2023/01/01 10:22:54;;;;;;;3.83;2.42;;;12.20;99.90;;;;;;5014766;28;20032;-79
2023/01/01 10:25:24;;;;;;;6.10;2.42;;;12.20;99.90;;;;;;5068828;28;20403;-77
2023/01/01 10:27:57;;;;;;;4.97;3.08;;;12.30;99.90;;;;;;5069376;28;20582;-78
2023/01/01 10:30:24;;;;;;;3.58;2.60;;;12.30;99.90;;;;;;5046979;28;20043;-79
2023/01/01 10:32:52;;;;;;;5.38;3.00;;;12.30;99.90;;;;;;5063581;28;20024;-77
2023/01/01 10:35:38;;;;;;;4.38;2.63;;;12.40;99.90;;;;;;5065601;28;20063;-78
2023/01/01 10:38:05;;;;;;;5.60;2.90;;;12.40;99.90;;;;;;5046022;28;20051;-78
2023/01/01 10:40:32;;;;;;;3.65;2.45;;;12.50;99.90;;;;;;5085118;28;20100;-77
2023/01/01 10:43:01;;;;;;;5.32;3.17;;;12.40;99.90;;;;;;5058370;28;20121;-79
2023/01/01 10:45:35;;;;;;;5.18;3.28;;;12.40;99.90;;;;;;5075935;28;20052;-79
2023/01/01 10:48:31;;;;;;;4.97;2.67;;;12.40;99.90;;;;;;5065692;28;20036;-79
2023/01/01 10:51:06;;;;;;;4.47;2.90;;;12.50;99.90;;;;;;5079267;28;20048;-79
2023/01/01 10:53:41;;;;;;;7.50;2.87;;;12.50;99.90;;;;;;5074684;28;20107;-79
2023/01/01 10:56:22;;;;;;;6.55;3.20;;;12.60;99.90;;;;;;5062057;28;20032;-79
2023/01/01 10:58:53;;;;;;;5.75;2.80;;;12.60;99.90;;;;;;5068281;28;20043;-79
2023/01/01 11:01:23;;;;;;;3.58;2.17;;;12.70;99.90;;;;;;5075825;28;20500;-79
2023/01/01 11:04:01;;;;;;;4.45;2.35;;;12.70;99.90;;;;;;5074428;28;20040;-79
2023/01/01 11:06:42;;;;;;;4.95;2.60;;;12.80;99.90;;;;;;5081989;28;20025;-78
2023/01/01 11:09:21;;;;;;;5.03;2.35;;;12.90;99.90;;;;;;5077460;28;20037;-79
2023/01/01 11:11:58;;;;;;;3.63;2.70;;;13.10;99.90;;;;;;5075347;28;20020;-78
2023/01/01 11:14:40;;;;;;;3.30;2.42;;;13.20;99.90;;;;;;5066229;28;20029;-78
2023/01/01 11:17:07;;;;;;;6.55;2.50;;;13.30;99.90;;;;;;5077760;28;20093;-78
2023/01/01 11:19:35;;;;;;;3.70;2.28;;;13.30;99.90;;;;;;5079608;28;20443;-78
2023/01/01 11:22:03;;;;;;;8.10;3.70;;;13.30;99.90;;;;;;5081766;28;20516;-79
2023/01/01 11:24:31;;;;;;;5.85;2.28;;;13.30;99.90;;;;;;5062090;28;20055;-78
2023/01/01 11:27:22;;;;;;;3.60;2.38;;;13.20;99.90;;;;;;5061819;28;20036;-79
2023/01/01 11:29:53;;;;;;;4.18;2.33;;;13.20;99.90;;;;;;5040677;28;20063;-78
2023/01/01 11:32:30;;;;;;;4.80;2.30;;;13.10;99.90;;;;;;5072156;28;20032;-77
2023/01/01 11:35:05;;;;;;;6.47;2.45;;;13.10;99.90;;;;;;5057644;28;20487;-79
2023/01/01 11:37:37;;;;;;;5.85;2.20;;;13.10;99.90;;;;;;5078691;28;20034;-79
2023/01/01 11:40:13;;;;;;;5.28;2.20;;;13.10;99.90;;;;;;5066237;28;20036;-78
2023/01/01 11:42:46;;;;;;;3.50;2.15;;;13.10;99.90;;;;;;5041608;28;20058;-79
2023/01/01 11:45:27;;;;;;;5.57;2.35;;;13.10;99.90;;;;;;5081390;28;20051;-78
2023/01/01 11:48:00;;;;;;;4.95;2.40;;;13.10;99.90;;;;;;5057450;28;20067;-79
2023/01/01 11:50:40;;;;;;;3.70;2.40;;;13.10;99.90;;;;;;5073097;28;20044;-77
2023/01/01 11:53:30;;;;;;;3.45;1.95;;;13.10;99.90;;;;;;5072341;28;20025;-78
2023/01/01 11:56:02;;;;;;;3.80;2.50;;;13.10;99.90;;;;;;5039986;28;20051;-78
2023/01/01 11:58:37;;;;;;;3.45;1.98;;;13.10;99.90;;;;;;5074667;28;20115;-78
2023/01/01 12:01:32;;;;;;;5.68;2.75;;;13.20;99.90;;;;;;5069849;28;20028;-78
2023/01/01 12:04:05;;;;;;;7.10;2.25;;;13.20;99.90;;;;;;5070929;28;20117;-78
2023/01/01 12:06:56;;;;;;;3.00;1.88;;;13.20;99.90;;;;;;5080488;28;20484;-78
2023/01/01 12:09:54;;;;;;;6.50;2.20;;;13.20;99.90;;;;;;5075956;28;20040;-78
2023/01/01 12:12:32;;;;;;;4.13;1.95;;;13.20;99.90;;;;;;5059104;28;20035;-78
2023/01/01 12:15:19;;;;;;;3.10;1.77;;;13.20;99.90;;;;;;5064146;28;20500;-78
2023/01/01 12:18:09;;;;;;;5.00;2.30;;;13.20;99.90;;;;;;5079540;28;20055;-80
2023/01/01 12:20:42;;;;;;;3.88;1.95;;;13.20;99.90;;;;;;5051284;28;20032;-78
2023/01/01 12:23:10;;;;;;;3.97;2.25;;;13.20;99.90;;;;;;5075594;28;20055;-77
2023/01/01 12:25:43;;;;;;;5.57;2.00;;;13.10;99.90;;;;;;5072459;28;20025;-80
2023/01/01 12:28:38;;;;;;;5.03;2.38;;;13.10;99.90;;;;;;5082902;28;20081;-79
2023/01/01 12:31:23;;;;;;;3.85;1.90;;;13.10;99.90;;;;;;5061030;28;20057;-79
2023/01/01 12:34:19;;;;;;;3.95;1.65;;;13.00;99.90;;;;;;5080561;28;20028;-77
2023/01/01 12:37:15;;;;;;;4.50;1.85;;;13.10;99.90;;;;;;5075878;28;20020;-78
2023/01/01 12:39:41;;;;;;;;;;;13.10;99.90;;;;;;5075880;28;20024;-79
2023/01/01 12:42:13;;;;;;;;;;;13.20;99.90;;;;;;5069778;28;20007;-77
2023/01/01 12:45:00;;;;;;;3.22;1.83;;;13.20;99.90;;;;;;5066277;28;19912;-78
2023/01/01 12:48:14;;;;;;;6.18;2.05;;;13.20;99.90;;;;;;5084792;28;20094;-78
2023/01/01 12:50:47;;;;;;;2.78;2.13;;;13.20;99.90;;;;;;5002342;28;20084;-77
2023/01/01 12:53:18;;;;;;;3.40;1.75;;;13.20;99.90;;;;;;4996601;28;20033;-78
2023/01/01 12:56:11;;;;;;;2.30;1.38;;;13.30;99.90;;;;;;5042555;28;20035;-78
2023/01/01 12:58:42;;;;;;;6.18;2.28;;;13.40;99.90;;;;;;5064719;28;20120;-79
2023/01/01 13:01:16;;;;;;;2.42;1.48;;;13.40;99.90;;;;;;5080269;28;20028;-77
2023/01/01 13:03:45;;;;;;;7.97;2.00;;;13.40;99.90;;;;;;5079932;28;20028;-78
2023/01/01 13:06:13;;;;;;;5.95;1.85;;;13.30;99.90;;;;;;5062852;28;20117;-78
2023/01/01 13:08:42;;;;;;;5.15;1.50;;;13.40;99.90;;;;;;5084941;28;20028;-78
2023/01/01 13:11:09;;;;;;;5.63;1.58;;;13.30;99.90;;;;;;5062133;28;20119;-79